Wan Hai 273 — 9V7586 — position and weather

sailwx.info

Track history (hours):
 
Tides and Currents Weather Stations Pressure Air Temp Water Temp Dewpoint Dewpoint Depression Visibility Wind Speed Wind Dir Waves Ship Positions

Wan Hai 273

Last reported at 2014-Aug-20 00:21 UTC. Time now 2014-Aug-21 04:19 UTC.
Position N 22°48' E 116°51'.

Length 172 m; draft 8.2 m.

Type: Cargo ship. MMSI: 566406000.

Date/timePositionNaut miles runAvg speedWind from/ knotsBaromVisibWave heightAir tempDewpointWater temp
2014-Aug-20 00:21N 22°48' E 116°51'1416.3
2014-Aug-19 23:31N 22°54' E 117°04'1616.2
2014-Aug-19 22:33N 23°01' E 117°19'4915.5
2014-Aug-19 19:22N 23°28' E 118°04'1315.5
2014-Aug-19 18:33N 23°37' E 118°14'1916.0
2014-Aug-19 17:24N 23°50' E 118°29'6015.6
2014-Aug-19 13:31N 24°34' E 119°14'35316.6
2014-Aug-18 16:18N 29°32' E 122°46'1818.0
2014-Aug-18 15:17N 29°49' E 122°53'3217.7
2014-Aug-18 13:28N 30°21' E 123°01'1618.1
2014-Aug-18 12:33N 30°37' E 122°58'1817.9
2014-Aug-18 11:33N 30°54' E 122°53'1716.4
2014-Aug-18 10:31N 31°05' E 122°38'1414.6
2014-Aug-18 09:33N 31°06' E 122°21'2914.2
2014-Aug-18 07:30N 31°17' E 121°50'1010.1
2014-Aug-18 06:34N 31°20' E 121°39'0 0.2
2014-Aug-18 05:31N 31°20' E 121°39'0 0.0
2014-Aug-18 04:19N 31°20' E 121°39'0 0.0
2014-Aug-18 03:31N 31°20' E 121°39'0 0.0
2014-Aug-18 02:31N 31°20' E 121°39'0 0.0
2014-Aug-18 01:31N 31°20' E 121°39'0 0.0
2014-Aug-18 00:07N 31°20' E 121°39'37 5.6
2014-Aug-17 17:32N 31°06' E 122°19'9 8.1
2014-Aug-17 16:29N 31°06' E 122°29'6 5.9
2014-Aug-17 15:24N 31°07' E 122°36'2 0.1
2014-Aug-16 16:33N 31°09' E 122°37'  
2014-Aug-13 11:05N 34°04' E 134°55'917.0
2014-Aug-13 10:33N 34°13' E 134°58'1414.3
2014-Aug-13 09:33N 34°26' E 135°05'1615.9
2014-Aug-13 08:33N 34°39' E 135°16'2 1.6
2014-Aug-13 07:28N 34°41' E 135°15'0 0.0
2014-Aug-13 05:28N 34°41' E 135°15'0 0.0
2014-Aug-13 04:28N 34°41' E 135°15'0 0.0
2014-Aug-13 03:28N 34°41' E 135°15'3 3.7
2014-Aug-13 02:33N 34°38' E 135°16'3 2.4
2014-Aug-13 01:24N 34°37' E 135°13'0 0.0
2014-Aug-13 00:30N 34°37' E 135°13'0 0.0
2014-Aug-12 23:30N 34°37' E 135°13'0 0.1
2014-Aug-12 22:33N 34°37' E 135°13'8 8.4
2014-Aug-12 21:33N 34°38' E 135°23'2 1.9
2014-Aug-12 20:24N 34°39' E 135°26'0 0.0
2014-Aug-12 19:24N 34°39' E 135°26'0 0.0
2014-Aug-12 18:30N 34°39' E 135°26'0 0.0
2014-Aug-12 17:30N 34°39' E 135°26'0 0.0
2014-Aug-12 16:30N 34°39' E 135°26'0 0.0
2014-Aug-12 15:30N 34°39' E 135°26'0 0.0
2014-Aug-12 14:30N 34°39' E 135°26'0 0.0
2014-Aug-12 13:30N 34°39' E 135°26'0 0.0
2014-Aug-12 12:30N 34°39' E 135°26'0 0.0
2014-Aug-12 11:30N 34°39' E 135°26'0 0.0
2014-Aug-12 10:30N 34°39' E 135°26'0 0.0
2014-Aug-12 09:30N 34°39' E 135°26'0 0.0
2014-Aug-12 08:30N 34°39' E 135°26'0 0.0
2014-Aug-12 07:30N 34°39' E 135°26'0 0.4
2014-Aug-12 06:33N 34°39' E 135°25'6 6.0
2014-Aug-12 05:33N 34°36' E 135°19'0 0.0
2014-Aug-12 04:17N 34°36' E 135°19'0 0.0
2014-Aug-12 03:29N 34°36' E 135°19'0 0.0
2014-Aug-12 02:23N 34°36' E 135°19'0 0.1
2014-Aug-12 00:29N 34°36' E 135°19'0 0.0
2014-Aug-11 23:29N 34°36' E 135°19'0 0.0
2014-Aug-11 22:29N 34°36' E 135°19'0 0.1
2014-Aug-11 21:29N 34°36' E 135°19'0 0.1
2014-Aug-11 20:29N 34°36' E 135°19'0 0.0
2014-Aug-11 19:17N 34°36' E 135°19'0 0.0
2014-Aug-11 18:23N 34°36' E 135°19'0 0.1
2014-Aug-11 17:17N 34°36' E 135°19'0 0.0
2014-Aug-11 16:23N 34°36' E 135°19'0 0.1
2014-Aug-11 15:29N 34°36' E 135°19'0 0.0
2014-Aug-11 13:23N 34°36' E 135°19'0 0.1
2014-Aug-11 12:29N 34°36' E 135°19'0 0.0
2014-Aug-11 11:17N 34°36' E 135°19'0 0.0
2014-Aug-11 10:29N 34°36' E 135°19'0 0.1
2014-Aug-11 09:29N 34°36' E 135°19'0 0.0
2014-Aug-11 08:29N 34°36' E 135°19'0 0.0
2014-Aug-11 07:29N 34°36' E 135°19'0 0.0
2014-Aug-11 06:29N 34°36' E 135°19'0 0.0
2014-Aug-11 05:23N 34°36' E 135°19'0 0.0
2014-Aug-11 04:23N 34°36' E 135°19'0 0.1
2014-Aug-11 03:23N 34°36' E 135°19'0 0.0
2014-Aug-11 02:29N 34°36' E 135°19'0 0.0
2014-Aug-11 00:23N 34°36' E 135°19'0 0.0
2014-Aug-10 23:23N 34°36' E 135°19'2 2.5
2014-Aug-10 22:33N 34°34' E 135°17'1616.0
2014-Aug-10 21:33N 34°22' E 135°04'1414.0
2014-Aug-10 20:33N 34°09' E 135°01'8 7.8
2014-Aug-10 19:33N 34°01' E 134°60'  
Track history (hours):
 
Tides and Currents Weather Stations Pressure Air Temp Water Temp Dewpoint Dewpoint Depression Visibility Wind Speed Wind Dir Waves Ship Positions

Wan Hai 273

Last reported at 2014-Aug-20 00:21 UTC. Time now 2014-Aug-21 04:19 UTC.
Position N 22°48' E 116°51'.

Length 172 m; draft 8.2 m.

Type: Cargo ship. MMSI: 566406000.

Date/timePositionNaut miles runAvg speedWind from/ knotsBaromVisibWave heightAir tempDewpointWater temp
2014-Aug-20 00:21N 22°48' E 116°51'1416.3
2014-Aug-19 23:31N 22°54' E 117°04'1616.2
2014-Aug-19 22:33N 23°01' E 117°19'4915.5
2014-Aug-19 19:22N 23°28' E 118°04'1315.5
2014-Aug-19 18:33N 23°37' E 118°14'1916.0
2014-Aug-19 17:24N 23°50' E 118°29'6015.6
2014-Aug-19 13:31N 24°34' E 119°14'35316.6
2014-Aug-18 16:18N 29°32' E 122°46'1818.0
2014-Aug-18 15:17N 29°49' E 122°53'3217.7
2014-Aug-18 13:28N 30°21' E 123°01'1618.1
2014-Aug-18 12:33N 30°37' E 122°58'1817.9
2014-Aug-18 11:33N 30°54' E 122°53'1716.4
2014-Aug-18 10:31N 31°05' E 122°38'1414.6
2014-Aug-18 09:33N 31°06' E 122°21'2914.2
2014-Aug-18 07:30N 31°17' E 121°50'1010.1
2014-Aug-18 06:34N 31°20' E 121°39'0 0.2
2014-Aug-18 05:31N 31°20' E 121°39'0 0.0
2014-Aug-18 04:19N 31°20' E 121°39'0 0.0
2014-Aug-18 03:31N 31°20' E 121°39'0 0.0
2014-Aug-18 02:31N 31°20' E 121°39'0 0.0
2014-Aug-18 01:31N 31°20' E 121°39'0 0.0
2014-Aug-18 00:07N 31°20' E 121°39'37 5.6
2014-Aug-17 17:32N 31°06' E 122°19'9 8.1
2014-Aug-17 16:29N 31°06' E 122°29'6 5.9
2014-Aug-17 15:24N 31°07' E 122°36'2 0.1
2014-Aug-16 16:33N 31°09' E 122°37'  
2014-Aug-13 11:05N 34°04' E 134°55'917.0
2014-Aug-13 10:33N 34°13' E 134°58'1414.3
2014-Aug-13 09:33N 34°26' E 135°05'1615.9
2014-Aug-13 08:33N 34°39' E 135°16'2 1.6
2014-Aug-13 07:28N 34°41' E 135°15'0 0.0
2014-Aug-13 05:28N 34°41' E 135°15'0 0.0
2014-Aug-13 04:28N 34°41' E 135°15'0 0.0
2014-Aug-13 03:28N 34°41' E 135°15'3 3.7
2014-Aug-13 02:33N 34°38' E 135°16'3 2.4
2014-Aug-13 01:24N 34°37' E 135°13'0 0.0
2014-Aug-13 00:30N 34°37' E 135°13'0 0.0
2014-Aug-12 23:30N 34°37' E 135°13'0 0.1
2014-Aug-12 22:33N 34°37' E 135°13'8 8.4
2014-Aug-12 21:33N 34°38' E 135°23'2 1.9
2014-Aug-12 20:24N 34°39' E 135°26'0 0.0
2014-Aug-12 19:24N 34°39' E 135°26'0 0.0
2014-Aug-12 18:30N 34°39' E 135°26'0 0.0
2014-Aug-12 17:30N 34°39' E 135°26'0 0.0
2014-Aug-12 16:30N 34°39' E 135°26'0 0.0
2014-Aug-12 15:30N 34°39' E 135°26'0 0.0
2014-Aug-12 14:30N 34°39' E 135°26'0 0.0
2014-Aug-12 13:30N 34°39' E 135°26'0 0.0
2014-Aug-12 12:30N 34°39' E 135°26'0 0.0
2014-Aug-12 11:30N 34°39' E 135°26'0 0.0
2014-Aug-12 10:30N 34°39' E 135°26'0 0.0
2014-Aug-12 09:30N 34°39' E 135°26'0 0.0
2014-Aug-12 08:30N 34°39' E 135°26'0 0.0
2014-Aug-12 07:30N 34°39' E 135°26'0 0.4
2014-Aug-12 06:33N 34°39' E 135°25'6 6.0
2014-Aug-12 05:33N 34°36' E 135°19'0 0.0
2014-Aug-12 04:17N 34°36' E 135°19'0 0.0
2014-Aug-12 03:29N 34°36' E 135°19'0 0.0
2014-Aug-12 02:23N 34°36' E 135°19'0 0.1
2014-Aug-12 00:29N 34°36' E 135°19'0 0.0
2014-Aug-11 23:29N 34°36' E 135°19'0 0.0
2014-Aug-11 22:29N 34°36' E 135°19'0 0.1
2014-Aug-11 21:29N 34°36' E 135°19'0 0.1
2014-Aug-11 20:29N 34°36' E 135°19'0 0.0
2014-Aug-11 19:17N 34°36' E 135°19'0 0.0
2014-Aug-11 18:23N 34°36' E 135°19'0 0.1
2014-Aug-11 17:17N 34°36' E 135°19'0 0.0
2014-Aug-11 16:23N 34°36' E 135°19'0 0.1
2014-Aug-11 15:29N 34°36' E 135°19'0 0.0
2014-Aug-11 13:23N 34°36' E 135°19'0 0.1
2014-Aug-11 12:29N 34°36' E 135°19'0 0.0
2014-Aug-11 11:17N 34°36' E 135°19'0 0.0
2014-Aug-11 10:29N 34°36' E 135°19'0 0.1
2014-Aug-11 09:29N 34°36' E 135°19'0 0.0
2014-Aug-11 08:29N 34°36' E 135°19'0 0.0
2014-Aug-11 07:29N 34°36' E 135°19'0 0.0
2014-Aug-11 06:29N 34°36' E 135°19'0 0.0
2014-Aug-11 05:23N 34°36' E 135°19'0 0.0
2014-Aug-11 04:23N 34°36' E 135°19'0 0.1
2014-Aug-11 03:23N 34°36' E 135°19'0 0.0
2014-Aug-11 02:29N 34°36' E 135°19'0 0.0
2014-Aug-11 00:23N 34°36' E 135°19'0 0.0
2014-Aug-10 23:23N 34°36' E 135°19'2 2.5
2014-Aug-10 22:33N 34°34' E 135°17'1616.0
2014-Aug-10 21:33N 34°22' E 135°04'1414.0
2014-Aug-10 20:33N 34°09' E 135°01'8 7.8
2014-Aug-10 19:33N 34°01' E 134°60'  

Dump ship's entire track history